weather station
Area: 7197 km2
The highest point: Čupec (819 m.s.l.)
Total stations: 36
Stations online: 33
Stations offline: 3
Current weather
13°C

Meteorological map - weather stations in Jihomoravský

. The meteorological maps show weather information from WARIO weather stations

Weather stations Jihomoravský

 UpdatesNameStatusTemperatureHumidityWind speedWind direction
5.7.2020 02:40Archlebov12.2 °C94.6 %1.8 m/s NE
5.7.2020 02:40Boskovice13.2 °C84.2 %0.9 m/s SW
5.7.2020 02:40Brno - Líšeň15.6 °C67.3 %0.0 m/s W
5.7.2020 02:40Brno - Vinohrady14.4 °C85.0 %1.8 m/s N
5.7.2020 02:40Brno - Komín12.3 °C96.2 %0.0 m/s N
5.7.2020 02:40Brno - Střed15.4 °C78.1 %1.6 m/s W
5.7.2020 02:39Brno - Kníničky12.0 °C99.2 %0.0 m/s SW
5.7.2020 02:40Býkovice12.4 °C83.2 %0.0 m/s W
5.7.2020 02:40Litobratřice15.5 °C72.0 %0.8 m/s N
27.6.2020 08:59Diváky22.9 °C63.0 %1.1 m/s SW
5.7.2020 02:39Dobšice18.3 °C64.5 %2.7 m/s SE
5.7.2020 02:39Drnholec12.4 °C98.7 %0.0 m/s SW
5.7.2020 02:40Holubice11.1 °C91.9 %0.0 m/s S
5.7.2020 02:40Moravany10.3 °C90.7 %0.0 m/s S
5.7.2020 02:40Lomnice12.7 °C83.9 %0.0 m/s S
29.6.2020 13:21Višňové16.5 °C98.5 %0.0 m/s W
5.7.2020 02:39Lelekovice11.8 °C100.0 %1.0 m/s SW
5.7.2020 02:40Dolní Dubňany10.6 °C90.0 %1.0 m/s S
5.7.2020 02:40Brno - Jih15.1 °C79.0 %1.6 m/s SW
5.7.2020 02:40Svatobořice11.1 °C99.0 %0.0 m/s E
5.7.2020 02:39Moravské Bránice13.2 °C80.2 %1.3 m/s N
5.7.2020 02:39Troubsko11.5 °C86.0 %0.0 m/s E
5.7.2020 02:40Pozořice14.6 °C83.7 %0.0 m/s NW
5.7.2020 02:39Předklášteří10.7 °C89.3 %0.6 m/s E
5.7.2020 02:40Brno - Přízřenice14.2 °C78.6 %1.1 m/s SE
5.7.2020 02:39Skalice u Znojma14.3 °C96.8 %0.0 m/s S
5.7.2020 02:40Šlapanice12.8 °C86.0 %0.0 m/s NW
5.7.2020 02:40Kuřim °C %0.0 m/s E
5.7.2020 02:40Strážnice GUMEX12.5 °C89.5 %0.0 m/s NW
5.7.2020 02:40Němčičky13.6 °C84.0 %0.0 m/s NW
5.7.2020 02:40Veselí nad Moravou11.7 °C100.0 %0.0 m/s SW
5.7.2020 02:40Veselí nad Moravou13.8 °C93.8 %0.0 m/s SW
23.5.2020 22:05Vlasatice12.2 °C89.9 %4.2 m/s S
5.7.2020 02:39Vrbovec17.0 °C69.9 %0.7 m/s W
5.7.2020 02:39Rájec-Jestřebí9.9 °C100.0 %1.3 m/s E
5.7.2020 02:40Brno - Královo Pole13.9 °C85.0 %0.9 m/s N
Email notifications
Enter your email address to subscribe to notifications about news at warioweather.com. Your email address will not be used for any purpose other than sending these emails and will not be provided to any third party. The subscription can be ended at any time.
All data are only indicative. The portal administrator has no responsibility for potentially incorrect data and related consequences. Publishing or further sharing of content from www.warioweather.com is only allowed with written consent from WANET s.r.o.